Relevés horaires Bierset (Belgique)


Relevés horaires à Bierset - Dimanche 29 Déc. 2019
Heure UTC1 Température [°C] Vent [km/h] Hum. [%] Pres.4 [hPa] Visi. [Km] Nébu. [octa] Préc.5 [mm] Cond.
2m. Res. Ros. Dir.2 Vit. Moy. Raf.3
23:00 5.2 3.5 -10.6 SSE 7.4 11.1 14.8 31 1034.9(-0.9/3h) 50 7/8 -- --
22:00 6.0 4 -11.4 SSE 9.3 9.3 18.5 27 1035.3(-0.7/3h) 30 6/8 -- --
21:00 5.7 3.6 -10.0 SSE 9.3 9.3 20.4 31 1035.6(-0.3/3h) 30 7/8 -- --
20:00 5.7 4.1 -8.5 S 7.4 9.3 16.7 35 1035.8(0.0/3h) 30 7/8 -- --
19:00 6.3 4.4 -8.2 S 9.3 9.3 13.0 34 1035.9(-0.1/3h) 30 7/8 -- --
18:00 6.2 5.2 -7.2 SSE 5.6 7.4 14.8 38 1035.9(-0.2/3h) 25 7/8 0/12h
--
17:00 6.6 5.2 -6.4 SSE 7.4 7.4 11.1 39 1035.7(-0.4/3h) 20 7/8 -- --
16:00 5.8 4.2 -4.7 SE 7.4 7.4 14.8 47 1036(-0.4/3h) 18 7/8 -- --
15:00 6.0 6.0 -3.6 SE 3.7 3.7 11.1 50 1036.1(-0.9/3h) 18 7/8 -- --
14:00 6.3 6.3 -4.5 SSE 1.9 3.7 11.1 46 1036.1(-1.2/3h) 18 7/8 -- --
13:00 5.7 5.7 -3.3 S 1.9 3.7 9.3 52 1036.5(-1.7/3h) 25 7/8 -- --
12:00 4.2 4.2 -5.2 SSE 1.9 3.7 13.0 50 1037.2(-0.7/3h) 20 7/8 0/6h
--
11:00 1.8 1.8 -3.2 SE 1.9 3.7 9.3 69 1037.7(-0.4/3h) 20 7/8 -- --
10:00 1.2 1.2 -3.1 NNO 0.0 3.7 5.6 73 1038.5(-0.1/3h) 18 6/8 -- --
09:00 0.0 0.0 -4.4 SE 3.7 3.7 13.0 72 1038.2(-0.4/3h) 14 4/8 -- --
08:00 -1.2 -1.2 -3.5 NNO 0.0 3.7 13.0 84 1038.4(-0.2/3h) 12 4/8 -- --
07:00 -1.0 -1.0 -3.6 SE 1.9 1.9 13.0 82 1038.6(0.2/3h) 15 4/8 -- --
06:00 -1.5 -1.5 -3.2 SSE 1.9 11.1 13.0 88 1038.8(0.3/3h) 15 4/8 0/12h
--
05:00 -0.4 -0.4 -3.8 S 1.9 3.7 9.3 78 1038.6(-0.9/3h) 25 3/8 -- --
04:00 0.1 0.1 -3.3 SSO 1.9 11.1 13.0 78 1038.3(-0.8/3h) 25 3/8 -- --
03:00 -1.2 -3.9 -2.5 SE 7.4 7.4 11.1 91 1038.5(-0.9/3h) 10 2/8 -- --
02:00 -0.8 -0.8 -2.9 S 1.9 3.7 3.7 86 1039.6(0.3/3h) 20 3/8 -- --
01:00 0.0 0.0 -3.0 SSE 1.9 1.9 9.3 80 1039.2(-0.3/3h) 30 3/8 -- --
00:00 0.0 0.0 -2.7 E 1.9 11.1 16.7 82 1039.3(-0.8/3h) 30 5/8 0/6h
0/24h
--

1 Coordinated Universal Time. Actuellement il est 01:00 locale et 23:00 UTC.

2 Le vent souffle depuis la direction indiquée vers la direction oposée.

3 Les rafales max. sont disponible 40 min après l'heure du relevé.

4 Pour les stations d'altitude (plus de 600m) le géopotentiel du niveau le plus proche de la pression obligatoire est indiqué.

5 Les stations disposant d'un diffuseur peuvent indiquer "trace". Cela signifie que des précipitations ont touchés le sol mais que la quantité est inférieure à 0.1 mm.

Récapitulatif de la journée
Température [°C] Vent [km/h] Ensoleillement4 [h] Precipitations totale5 [mm] Pression [Hpa]
Min1 Max.2 Moy.3 Max. Min Max.
-1.6 6.8 6.3 20.4 0 h 0 min 0 1034.9 1039.6

1 Température minimale relevée entre 18:00 UTC la veille et 18:00 UTC le jour donné.

2 Température maximale relevée entre 06:00 UTC le jour donné et 06:00 UTC le lendemain.

3 Vent moyen de la journée basé sur les relevés horaires.

4 Ensoleillement en heures relevé entre 06:00 UTC la veille et 06:00 UTC le jour donné.

5 Précipitations totales tombées entre 06:00 UTC la jour donné et 06:00 UTC le lendemain.

Graphiques horaires